Data for 04/20/2015

Time Sea-Level Adjusted Pressure Absolute Pressure Temperature Relative Humidity Dew Point   
(mb) (inHg) (mb) (inHg) (C) (F) (%) (C) (F)
00:05 1019 30.09 848 25.04 3.3 37.9 49 -6.5 20.2
00:10 1019 30.09 848 25.04 3.3 38 48 -6.7 19.9
00:15 1019 30.09 848 25.04 3.3 38 48 -6.5 20.2
00:20 1019 30.09 848 25.04 3.3 37.9 49 -6.5 20.2
00:25 1019 30.09 848 25.04 3.3 38 48 -6.7 20
00:30 1019 30.09 848 25.04 3.4 38.1 48 -6.5 20.3
00:35 1019 30.09 848 25.04 3.4 38.1 50 -6 21.2
00:40 1019 30.09 848 25.04 3.1 37.6 52 -5.7 21.8
00:45 1019 30.09 848 25.04 3 37.5 52 -5.8 21.5
00:50 1019 30.09 848 25.04 3.2 37.8 52 -5.8 21.5
00:55 1019 30.09 848 25.04 3.3 37.9 52 -5.5 22
01:00 1019 30.09 848 25.04 3.3 38 50 -6.1 21
01:05 1019 30.09 848 25.04 3.5 38.3 48 -6.4 20.5
01:10 1019 30.09 848 25.04 3.6 38.5 48 -6.3 20.6
01:15 1019 30.09 848 25.04 3.4 38.1 51 -5.8 21.5
01:20 1019 30.09 848 25.04 3.1 37.6 49 -6.5 20.3
01:25 1019 30.09 848 25.04 3.2 37.8 50 -6.4 20.6
01:30 1019 30.09 848 25.04 2.9 37.1 55 -5.4 22.3
01:35 1019 30.09 848 25.04 2.3 36.2 55 -5.7 21.7
01:40 1019 30.09 848 25.04 2.2 36 54 -6 21.2
01:45 1018 30.06 848 25.04 2.4 36.3 53 -6.4 20.6
01:50 1018 30.06 848 25.04 2.5 36.5 51 -6.6 20.2
01:55 1018 30.06 848 25.04 2.5 36.6 51 -6.6 20.1
02:00 1018 30.06 848 25.04 2.5 36.5 53 -6.2 20.9
02:05 1019 30.09 848 25.04 2.2 35.9 54 -6.2 20.9
02:10 1018 30.06 848 25.04 2.1 35.8 55 -6 21.1
02:15 1018 30.06 848 25.04 2.2 36 55 -6 21.1
02:20 1018 30.06 848 25.04 2.3 36.2 54 -5.9 21.4
02:25 1018 30.06 848 25.04 2.4 36.3 56 -5.6 22
02:30 1018 30.06 848 25.04 2.4 36.3 56 -5.6 21.9
02:35 1018 30.06 848 25.04 2.3 36.2 57 -5.2 22.6
02:40 1018 30.06 848 25.04 2.2 36 57 -5.5 22.1
02:45 1018 30.06 848 25.04 2.2 35.9 55 -5.9 21.5
02:50 1018 30.06 848 25.04 2.1 35.8 54 -6.2 20.8
02:55 1018 30.06 848 25.04 2.2 36 53 -6.4 20.5
03:00 1018 30.06 848 25.04 2.3 36.1 54 -6 21.1
03:05 1018 30.06 848 25.04 2.1 35.7 57 -5.5 22.1
03:10 1018 30.06 848 25.04 1.9 35.5 58 -5.5 22.1
03:15 1018 30.06 848 25.04 1.9 35.3 57 -5.9 21.4
03:20 1018 30.06 848 25.04 1.9 35.3 57 -5.7 21.8
03:25 1018 30.06 848 25.04 1.8 35.3 58 -5.6 21.9
03:30 1018 30.06 848 25.04 1.7 35.1 60 -5.1 22.8
03:35 1018 30.06 847 25.01 1.4 34.6 63 -4.9 23.1
03:40 1018 30.06 847 25.01 1.3 34.3 63 -5 23
03:45 1018 30.06 847 25.01 1.1 33.9 62 -5.4 22.3
03:50 1018 30.06 847 25.01 0.9 33.7 62 -5.5 22.2
03:55 1018 30.06 847 25.01 0.8 33.4 62 -5.7 21.8
04:00 1018 30.06 847 25.01 0.8 33.4 64 -5.4 22.4
04:05 1018 30.06 847 25.01 0.6 33.1 65 -5.3 22.5
04:10 1018 30.06 847 25.01 0.4 32.6 65 -5.5 22.1
04:15 1018 30.06 847 25.01 0.3 32.5 66 -5.4 22.4
04:20 1018 30.06 847 25.01 0.1 32.2 65 -5.6 21.8
04:25 1018 30.06 847 25.01 0.2 32.4 65 -5.6 21.9
04:30 1018 30.06 847 25.01 0.4 32.6 64 -5.6 21.9
04:35 1018 30.06 847 25.01 0.4 32.8 64 -5.5 22
04:40 1018 30.06 847 25.01 0.5 32.9 65 -5.4 22.3
04:45 1018 30.06 847 25.01 0.5 32.9 66 -5 22.9
04:50 1018 30.06 847 25.01 0.3 32.6 68 -4.8 23.3
04:55 1018 30.06 847 25.01 0.2 32.3 69 -4.8 23.4
05:00 1018 30.06 847 25.01 -0 32 70 -4.8 23.4
05:05 1018 30.06 847 25.01 -0.2 31.6 71 -4.8 23.4
05:10 1018 30.06 847 25.01 -0.3 31.4 70 -5.1 22.9
05:15 1018 30.06 847 25.01 -0.2 31.6 69 -5.3 22.5
05:20 1018 30.06 847 25.01 -0.2 31.7 68 -5.4 22.2
05:25 1018 30.06 847 25.01 -0.1 31.8 68 -5.4 22.4
05:30 1018 30.06 847 25.01 -0.1 31.9 69 -5.1 22.9
05:35 1018 30.06 847 25.01 -0.1 31.7 68 -5.3 22.5
05:40 1018 30.06 847 25.01 -0.2 31.6 69 -5.1 22.8
05:45 1018 30.06 847 25.01 -0.4 31.2 71 -5.1 22.9
05:50 1018 30.06 847 25.01 -0.6 31 71 -5.1 22.8
05:55 1018 30.06 847 25.01 -0.5 31.1 70 -5.2 22.6
06:00 1018 30.06 847 25.01 -0.4 31.3 70 -5.2 22.6
06:05 1018 30.06 847 25.01 -0.2 31.6 69 -5.3 22.5
06:10 1018 30.06 847 25.01 0 32 68 -5.2 22.6
06:15 1018 30.06 847 25.01 0.2 32.4 67 -5.2 22.6
06:20 1018 30.06 847 25.01 0.5 32.9 66 -5.1 22.8
06:25 1018 30.06 847 25.01 0.8 33.4 65 -5 23
06:30 1018 30.06 847 25.01 1 33.8 65 -4.9 23.1
06:35 1018 30.06 847 25.01 1.2 34.2 64 -4.9 23.1
06:40 1018 30.06 847 25.01 1.5 34.7 63 -4.9 23.2
06:45 1018 30.06 847 25.01 1.7 35.1 62 -4.8 23.3
06:50 1018 30.06 847 25.01 2.1 35.9 60 -4.7 23.5
06:55 1018 30.06 847 25.01 2.6 36.6 58 -4.9 23.3
07:00 1018 30.06 847 25.01 2.8 37 58 -4.7 23.5
07:05 1018 30.06 847 25.01 3 37.5 57 -4.7 23.6
07:10 1018 30.06 847 25.01 3.7 38.6 55 -4.5 23.9
07:15 1018 30.06 847 25.01 3.7 38.6 56 -4.3 24.2
07:20 1018 30.06 847 25.01 3.6 38.4 56 -4.3 24.2
07:25 1018 30.06 847 25.01 4 39.1 54 -4.5 23.8
07:30 1018 30.06 847 25.01 4.4 39.9 53 -4.5 23.9
07:35 1018 30.06 847 25.01 4.5 40.1 52 -4.5 23.9
07:40 1018 30.06 847 25.01 4.9 40.8 51 -4.3 24.2
07:45 1018 30.06 847 25.01 5.6 42.1 49 -4.3 24.3
07:50 1018 30.06 847 25.01 6.1 42.9 47 -4.3 24.3
07:55 1018 30.06 847 25.01 6.5 43.6 46 -4.4 24.2
08:00 1018 30.06 847 25.01 7.3 45.2 42 -4.6 23.7
08:05 1018 30.06 847 25.01 7.9 46.1 42 -4.2 24.4
08:10 1018 30.06 847 25.01 8.1 46.7 41 -4.2 24.5
08:15 1018 30.06 847 25.01 8.2 46.8 41 -4.2 24.5
08:20 1018 30.06 847 25.01 8 46.4 41 -4.6 23.8
08:25 1018 30.06 847 25.01 8.8 47.8 37 -5.2 22.7
08:30 1018 30.06 847 25.01 9 48.3 36 -5.2 22.7
08:35 1018 30.06 847 25.01 9.4 48.9 35 -5.3 22.4
08:40 1018 30.06 847 25.01 9.6 49.4 35 -5.2 22.7
08:45 1018 30.06 847 25.01 9.5 49.2 34 -5.7 21.8
08:50 1018 30.06 847 25.01 9.2 48.6 35 -5.5 22
08:55 1018 30.06 847 25.01 8.9 48 36 -5.4 22.3
09:00 1018 30.06 847 25.01 9.1 48.4 35 -5.4 22.2
09:05 1018 30.06 847 25.01 9.8 49.6 33 -5.6 22
09:10 1018 30.06 847 25.01 10.5 50.9 32 -5.3 22.4
09:15 1018 30.06 847 25.01 10.5 50.8 33 -5.3 22.5
09:20 1018 30.06 847 25.01 10.3 50.6 33 -5.2 22.6
09:25 1018 30.06 847 25.01 10.5 50.8 32 -5.4 22.4
09:30 1018 30.06 847 25.01 10.6 51.1 32 -5.5 22.2
09:35 1018 30.06 847 25.01 10.6 51.1 33 -5.1 22.9
09:40 1017 30.03 847 25.01 10.2 50.4 33 -5.3 22.5
09:45 1017 30.03 847 25.01 10.7 51.3 32 -5.3 22.4
09:50 1017 30.03 847 25.01 11.2 52.2 32 -5 23
09:55 1017 30.03 847 25.01 11.7 53 31 -4.9 23.2
10:00 1017 30.03 847 25.01 11.5 52.6 32 -4.7 23.5
10:05 1017 30.03 847 25.01 11.8 53.3 30 -5.3 22.5
10:10 1017 30.03 847 25.01 12.1 53.8 30 -4.9 23.1
10:15 1017 30.03 847 25.01 12.1 53.8 30 -4.8 23.4
10:20 1017 30.03 847 25.01 12.2 54 30 -5 23
10:25 1017 30.03 847 25.01 11.9 53.4 30 -5 23
10:30 1017 30.03 846 24.98 12 53.5 30 -5.2 22.7
10:35 1017 30.03 846 24.98 11.5 52.8 30 -5.3 22.5
10:40 1017 30.03 846 24.98 12.2 53.9 28 -5.6 22
10:45 1017 30.03 846 24.98 13 55.4 26 -6.2 20.8
10:50 1017 30.03 846 24.98 12.3 54.2 28 -5.9 21.5
10:55 1017 30.03 846 24.98 12.6 54.7 27 -5.7 21.7
11:00 1017 30.03 846 24.98 12.9 55.3 26 -6.3 20.7
11:05 1017 30.03 846 24.98 11.8 53.3 28 -6 21.2
11:10 1017 30.03 846 24.98 12.8 55 26 -6.4 20.5
11:15 1017 30.03 846 24.98 12 53.5 27 -6.6 20.1
11:20 1017 30.03 846 24.98 12 53.7 26 -7 19.5
11:25 1017 30.03 846 24.98 12.1 53.8 26 -6.7 19.9
11:30 1017 30.03 846 24.98 12.9 55.2 25 -6.8 19.8
11:35 1017 30.03 846 24.98 13.4 56.1 23 -7.1 19.3
11:40 1017 30.03 846 24.98 13.6 56.4 21 -8.1 17.3
11:45 1017 30.03 846 24.98 13.4 56.2 21 -8.6 16.5
11:50 1017 30.03 846 24.98 13 55.5 22 -8.2 17.3
11:55 1017 30.03 846 24.98 13.3 56 22 -8.1 17.5
12:00 1017 30.03 846 24.98 13.3 55.9 22 -7.9 17.8
12:05 1017 30.03 846 24.98 13 55.3 19 -10.2 13.7
12:10 1017 30.03 846 24.98 13.7 56.7 19 -9.2 15.4
12:15 1016 30 846 24.98 14 57.2 19 -9 15.8
12:20 1016 30 846 24.98 13.2 55.7 22 -8.1 17.3
12:25 1016 30 845 24.95 13.7 56.6 21 -8.5 16.8
12:30 1016 30 845 24.95 14.6 58.2 19 -8.6 16.4
12:35 1016 30 845 24.95 14.9 58.8 20 -7.5 18.5
12:40 1016 30 845 24.95 14.8 58.7 19 -8.7 16.3
12:45 1016 30 845 24.95 14.6 58.4 19 -8.4 16.8
12:50 1016 30 845 24.95 14.7 58.5 20 -7.9 17.7
12:55 1016 30 845 24.95 14.8 58.7 19 -8.3 17
13:00 1016 30 845 24.95 14.9 58.9 19 -8.2 17.2
13:05 1016 30 845 24.95 14.1 57.4 21 -7.6 18.3
13:10 1016 30 845 24.95 14.6 58.3 19 -8.4 16.9
13:15 1016 30 845 24.95 14.7 58.5 19 -8.3 17
13:20 1016 30 845 24.95 14.8 58.7 21 -7.4 18.7
13:25 1016 30 845 24.95 15.1 59.2 19 -8.3 17.1
13:30 1016 30 845 24.95 15.5 60 19 -7.8 17.9
13:35 1016 30 845 24.95 15.3 59.6 19 -7.9 17.8
13:40 1016 30 845 24.95 15.5 60 20 -7.6 18.3
13:45 1016 30 845 24.95 15 58.9 21 -7.1 19.3
13:50 1016 30 845 24.95 14.7 58.5 20 -7.8 18
13:55 1016 30 845 24.95 15.1 59.2 20 -7.3 18.8
14:00 1016 30 845 24.95 14.5 58 21 -7.4 18.6
14:05 1016 30 845 24.95 15.2 59.3 21 -6.9 19.5
14:10 1015 29.97 845 24.95 15.3 59.5 21 -7 19.4
14:15 1015 29.97 845 24.95 15.8 60.5 20 -7 19.4
14:20 1015 29.97 845 24.95 15.9 60.6 21 -6.4 20.5
14:25 1015 29.97 845 24.95 15.9 60.6 21 -6.3 20.7
14:30 1015 29.97 844 24.92 14.7 58.5 22 -6.8 19.7
14:35 1015 29.97 844 24.92 14 57.2 23 -6.8 19.8
14:40 1015 29.97 844 24.92 14.8 58.6 21 -7.4 18.7
14:45 1015 29.97 844 24.92 15.8 60.5 21 -6.6 20.1
14:50 1015 29.97 844 24.92 16.1 61 20 -6.6 20.1
14:55 1015 29.97 844 24.92 15.9 60.6 20 -6.8 19.7
15:00 1015 29.97 844 24.92 15.6 60 22 -6 21.3
15:05 1015 29.97 844 24.92 14.7 58.5 23 -6 21.2
15:10 1015 29.97 844 24.92 14.5 58.1 23 -6.3 20.7
15:15 1015 29.97 844 24.92 14.9 58.7 22 -6.6 20.2
15:20 1015 29.97 844 24.92 14.4 57.9 24 -6.1 21
15:25 1015 29.97 844 24.92 14.9 58.8 23 -6.3 20.7
15:30 1015 29.97 844 24.92 15.8 60.4 21 -6.4 20.4
15:35 1015 29.97 844 24.92 16.4 61.5 20 -6.5 20.3
15:40 1015 29.97 844 24.92 16.8 62.3 20 -6.4 20.5
15:45 1015 29.97 844 24.92 16 60.8 21 -6.5 20.2
15:50 1015 29.97 844 24.92 16.5 61.7 20 -6.6 20.2
15:55 1015 29.97 844 24.92 17 62.5 19 -6.4 20.5
16:00 1015 29.97 844 24.92 17 62.6 19 -6.6 20.1
16:05 1014 29.94 844 24.92 16.9 62.4 21 -5.4 22.3
16:10 1014 29.94 844 24.92 16.3 61.3 21 -5.9 21.4
16:15 1014 29.94 844 24.92 16.4 61.6 20 -6.4 20.4
16:20 1014 29.94 844 24.92 15.9 60.6 21 -6.1 21
16:25 1014 29.94 844 24.92 15.1 59.1 22 -6.3 20.6
16:30 1014 29.94 844 24.92 15.3 59.6 21 -6.9 19.5
16:35 1014 29.94 844 24.92 16.2 61.2 20 -6.7 19.9
16:40 1014 29.94 843 24.89 16.5 61.6 20 -6.5 20.4
16:45 1014 29.94 843 24.89 16.3 61.3 20 -6.5 20.2
16:50 1014 29.94 843 24.89 15.7 60.2 21 -6.3 20.7
16:55 1014 29.94 843 24.89 15.4 59.7 21 -6.8 19.8
17:00 1014 29.94 843 24.89 15.7 60.2 22 -5.7 21.7
17:05 1014 29.94 843 24.89 15.3 59.5 22 -6.5 20.2
17:10 1014 29.94 843 24.89 15.6 60 21 -6.6 20.1
17:15 1014 29.94 843 24.89 15.6 60.1 21 -6.6 20.1
17:20 1014 29.94 843 24.89 15.6 60.1 21 -6.6 20.1
17:25 1014 29.94 843 24.89 15.3 59.5 21 -6.7 20
17:30 1014 29.94 843 24.89 15.2 59.3 22 -6.3 20.7
17:35 1014 29.94 843 24.89 15.2 59.3 23 -5.9 21.4
17:40 1014 29.94 843 24.89 14.9 58.7 23 -6.1 21.1
17:45 1014 29.94 843 24.89 14.7 58.4 23 -6.1 20.9
17:50 1014 29.94 843 24.89 14.6 58.2 23 -6.3 20.7
17:55 1014 29.94 843 24.89 14.5 58.1 23 -6.3 20.7
18:00 1014 29.94 843 24.89 14.3 57.8 23 -6.3 20.7
18:05 1014 29.94 843 24.89 14.2 57.6 23 -6.3 20.6
18:10 1014 29.94 843 24.89 14.2 57.5 24 -6.3 20.6
18:15 1014 29.94 843 24.89 14.1 57.4 24 -6.2 20.8
18:20 1014 29.94 843 24.89 14 57.2 23 -6.5 20.4
18:25 1014 29.94 843 24.89 13.9 57.1 24 -6.3 20.7
18:30 1014 29.94 843 24.89 13.9 57 24 -6.2 20.8
18:35 1014 29.94 843 24.89 13.9 57 24 -6.4 20.5
18:40 1014 29.94 843 24.89 13.9 56.9 24 -6.2 20.8
18:45 1014 29.94 843 24.89 13.8 56.8 24 -6.2 20.8
18:50 1014 29.94 843 24.89 13.7 56.7 25 -6.1 21
18:55 1014 29.94 843 24.89 13.6 56.5 24 -6.3 20.7
19:00 1014 29.94 843 24.89 13.6 56.4 25 -6.2 20.9
19:05 1014 29.94 843 24.89 13.4 56.1 25 -6 21.2
19:10 1014 29.94 843 24.89 13.2 55.8 26 -5.8 21.6
19:15 1014 29.94 843 24.89 13.1 55.7 26 -5.8 21.6
19:20 1014 29.94 843 24.89 13 55.3 27 -5.5 22
19:25 1014 29.94 843 24.89 12.8 55.1 26 -6 21.3
19:30 1014 29.94 843 24.89 12.9 55.1 26 -6.2 20.9
19:35 1014 29.94 843 24.89 12.9 55.1 28 -5.2 22.7
19:40 1014 29.94 843 24.89 12.4 54.3 30 -4.9 23.3
19:45 1014 29.94 843 24.89 12 53.7 32 -4.3 24.2
19:50 1014 29.94 843 24.89 11.3 52.3 35 -3.5 25.8
19:55 1014 29.94 843 24.89 10.5 50.8 38 -3.3 26
20:00 1014 29.94 843 24.89 10.1 50.1 39 -3.2 26.2
20:05 1014 29.94 843 24.89 9.8 49.6 39 -3.3 26
20:10 1014 29.94 843 24.89 9.4 49 41 -3.1 26.5
20:15 1014 29.94 843 24.89 9.1 48.3 43 -2.8 27
20:20 1014 29.94 843 24.89 8.5 47.3 44 -3 26.6
20:25 1014 29.94 843 24.89 8.2 46.8 44 -3.3 26.1
20:30 1014 29.94 843 24.89 8.2 46.8 43 -3.6 25.5
20:35 1014 29.94 843 24.89 8.2 46.8 43 -3.5 25.7
20:40 1014 29.94 843 24.89 8.2 46.7 42 -4 24.9
20:45 1014 29.94 843 24.89 8.2 46.7 42 -4 24.9
20:50 1014 29.94 843 24.89 8.1 46.6 43 -3.8 25.1
20:55 1014 29.94 843 24.89 8.1 46.5 41 -4.3 24.3
21:00 1014 29.94 843 24.89 8.2 46.7 41 -4.2 24.4
21:05 1014 29.94 843 24.89 8.2 46.7 41 -4.4 24.1
21:10 1014 29.94 843 24.89 8 46.5 42 -4.2 24.5
21:15 1014 29.94 843 24.89 7.8 46.1 42 -4.2 24.4
21:20 1014 29.94 843 24.89 7.7 45.8 42 -4.3 24.2
21:25 1014 29.94 843 24.89 7.6 45.6 43 -4.2 24.4
21:30 1014 29.94 843 24.89 7.4 45.4 43 -4.3 24.3
21:35 1014 29.94 843 24.89 7.4 45.3 43 -4.3 24.2
21:40 1014 29.94 843 24.89 7.4 45.2 43 -4.3 24.2
21:45 1014 29.94 843 24.89 7.3 45.1 43 -4.4 24.2
21:50 1014 29.94 843 24.89 7.3 45.1 43 -4.5 23.9
21:55 1014 29.94 843 24.89 7.3 45.2 43 -4.4 24.1
22:00 1014 29.94 843 24.89 7.3 45.1 43 -4.3 24.2
22:05 1014 29.94 843 24.89 7.1 44.8 43 -4.7 23.6
22:10 1014 29.94 843 24.89 7.3 45.2 41 -4.9 23.1
22:15 1014 29.94 843 24.89 7.6 45.6 41 -4.7 23.5
22:20 1014 29.94 843 24.89 7.5 45.6 41 -4.8 23.3
22:25 1014 29.94 843 24.89 7.6 45.7 41 -4.9 23.3
22:30 1014 29.94 843 24.89 7.6 45.7 41 -4.8 23.3
22:35 1014 29.94 843 24.89 7.5 45.6 42 -4.6 23.7
22:40 1014 29.94 843 24.89 7.2 45 43 -4.7 23.6
22:45 1014 29.94 843 24.89 7.1 44.8 43 -4.6 23.7
22:50 1014 29.94 843 24.89 6.9 44.5 44 -4.5 23.8
22:55 1014 29.94 843 24.89 6.6 43.8 45 -4.5 23.9
23:00 1014 29.94 843 24.89 6.4 43.5 45 -4.6 23.8
23:05 1014 29.94 843 24.89 6.4 43.6 45 -4.8 23.4
23:10 1014 29.94 843 24.89 6.4 43.6 45 -4.6 23.7
23:15 1014 29.94 843 24.89 6.3 43.4 46 -4.4 24.1
23:20 1014 29.94 843 24.89 6.2 43.1 46 -4.6 23.8
23:25 1014 29.94 843 24.89 6.2 43.1 46 -4.7 23.6
23:30 1014 29.94 843 24.89 6.3 43.3 45 -4.8 23.3
23:35 1014 29.94 843 24.89 6.4 43.5 44 -4.9 23.3
23:40 1014 29.94 843 24.89 6.5 43.8 44 -4.9 23.2
23:45 1014 29.94 843 24.89 6.5 43.8 44 -4.8 23.4
23:50 1014 29.94 843 24.89 6.4 43.6 44 -4.8 23.3
23:55 1014 29.94 843 24.89 6.4 43.5 44 -4.9 23.1
24:00 1014 29.94 843 24.89 6.4 43.6 45 -4.6 23.6